ENFL/FRO METAR and TAF weather

Enter ICAO airport designator
Station Type Date Time Source
ENFL METAR 2020/06/06 19:20 UTC NOAA

ENFL 061920Z AUTO 33005KT 300V360 9999NDV OVC080/// 13/10 Q0991


Station Type Date Time Source
ENFL Decoded METAR 2020/06/06 19:20 UTC NOAA

Floro, Norway (ENFL) 61-35N 005-02E 9M
Jun 06, 2020 - 03:20 PM EDT / 2020.06.06 1920 UTC
Wind: from the NNW (330 degrees) at 6 MPH (5 KT) (direction variable):0
Sky conditions: overcast
Temperature: 55 F (13 C)
Dew Point: 50 F (10 C)
Relative Humidity: 81%
Pressure (altimeter): 29.26 in. Hg (0991 hPa)
ob: ENFL 061920Z AUTO 33005KT 300V360 9999NDV OVC080/// 13/10 Q0991
cycle: 19

Station Type Date Time Source
ENFL TAF 2010/02/05 07:50 UTC NOAA

METAR ENFL 050750Z 16019KT 140V200 9999 FEW015 SCT030 BKN055 03/M03 Q1011

Example: see airport list